North Brookfield, NY

6:19 PM EDT on March 27, 2015 (GMT -0400)
Curtin Dairy | | Change Station
CLOSE
Current Station
Personal Weather Station
Location: Cassville, NY
Elevation: 1240 ft
Nearby Weather Stations

Elev 1240 ft 42.92 °N, 75.23 °W | Updated 4 minutes ago

Overcast
Overcast
30.7 °F
Feels Like 22 °F
N
11.0
Wind Variable Wind from NNW
Gusts 15.0 mph

Today
High -- | Low -- °F
--% Chance of Precip.
Yesterday
High -- | Low -- °F
Precip. -- in
6:52 AM 7:21 PM
First Quarter, 56% visible
Pressure 29.84 in
Visibility 10.0 miles
Clouds Mostly Cloudy 3700 ft
Windchill 22 °F
Dew Point 25 °F
Humidity 80%
Rainfall 0.05 in
Snow Depth Not available.
UV 1 out of 12
Pollen .60 out of 12
Air Quality Not available.
Flu Activity Not available.
METAR KRME 272153Z 31011KT 10SM BKN037 01/M04 A2983 RMK AO2 SLP105 T00111044

More Conditions Fewer Conditions

Pressure 29.84 in
Visibility 10.0 miles
Clouds Mostly Cloudy 3700 ft
Windchill 22 °F
Dew Point 25 °F
Humidity 80%
Rainfall 0.05 in
Snow Depth Not available.
UV 1 out of 12
Pollen .60 out of 12
Air Quality Not available.
Flu Activity Not available.
METAR KRME 272153Z 31011KT 10SM BKN037 01/M04 A2983 RMK AO2 SLP105 T00111044

More Conditions Fewer Conditions

10-Day Weather Forecast

Almanac

Astronomy

Mar. 27, 2015 Rise Set
Actual Time
Civil Twilight
Nautical Twilight
Astronomical Twilight
Moon
Length of Visible Light
Length of Day
Tomorrow will be .
, % of the Moon is Illuminated

Today's Extremes

State Highs State Lows

Community

WunderPhotos

Upload Photos

1,808,844 photos uploaded!

WunderBlogs® & News

Nearby

Air Quality

  Air Quality AQ Index Pollutant
Not available.

Snow Depth

Station Depth Elevation

Earthquake Activity

City Distance Mag. Time & Date
Minimum magnitude displayed is 2.5.

Coastal Water Temperatures

Place Temperature

Stations

Nearby Weather Stations

Station Location Temp. Windchill Dew Point Humidity Wind Precip. Elev Updated Type